BLA8PZ LROP-LRCL
Flight info
| Callsign | BLA8PZ |
|---|---|
| Flight time | 0h 51m |
| Altitude | 24000 |
| Route | BUKEL DCT EDETA |
| Aircraft | B738/M-SDE2E3FGHIRWXY/LB1 |
Departure
| Time | 2026-04-21 16:03 |
|---|---|
| Airport | Bucharest Henri Coandă International Airport (LROP) |
Arrival
| Time | 2026-04-21 16:55 |
|---|---|
| Airport | Avram Iancu Cluj International Airport (LRCL) |
| Time | Latitude | Longitude | Altitude | Speed | Heading |
|---|---|---|---|---|---|
| 2026-04-21 15:35 | 44.57139 | 26.08001 | 315 ft | 0 kts | 175° |
| 2026-04-21 15:54 | 44.57140 | 26.08001 | 316 ft | 0 kts | 175° |
| 2026-04-21 15:54 | 44.57162 | 26.07998 | 316 ft | 4 kts | 175° |
| 2026-04-21 15:54 | 44.57185 | 26.07993 | 315 ft | 4 kts | 143° |
| 2026-04-21 15:54 | 44.57195 | 26.07965 | 315 ft | 4 kts | 88° |
| 2026-04-21 15:55 | 44.57194 | 26.07945 | 313 ft | 1 kts | 84° |
| 2026-04-21 15:55 | 44.57194 | 26.07943 | 313 ft | 0 kts | 84° |
| 2026-04-21 15:58 | 44.57196 | 26.07974 | 313 ft | 6 kts | 83° |
| 2026-04-21 15:58 | 44.57201 | 26.08037 | 316 ft | 7 kts | 84° |
| 2026-04-21 15:58 | 44.57206 | 26.08099 | 316 ft | 6 kts | 83° |
| 2026-04-21 15:59 | 44.57211 | 26.08160 | 316 ft | 6 kts | 84° |
| 2026-04-21 15:59 | 44.57216 | 26.08221 | 316 ft | 6 kts | 84° |
| 2026-04-21 15:59 | 44.57220 | 26.08281 | 316 ft | 7 kts | 83° |
| 2026-04-21 15:59 | 44.57227 | 26.08369 | 316 ft | 11 kts | 84° |
| 2026-04-21 16:00 | 44.57237 | 26.08472 | 316 ft | 10 kts | 70° |
| 2026-04-21 16:00 | 44.57303 | 26.08492 | 319 ft | 10 kts | 354° |
| 2026-04-21 16:00 | 44.57372 | 26.08482 | 320 ft | 10 kts | 354° |
| 2026-04-21 16:00 | 44.57440 | 26.08472 | 321 ft | 10 kts | 354° |
| 2026-04-21 16:01 | 44.57506 | 26.08462 | 322 ft | 9 kts | 353° |
| 2026-04-21 16:01 | 44.57542 | 26.08457 | 323 ft | 0 kts | 354° |
| 2026-04-21 16:02 | 44.57552 | 26.08455 | 324 ft | 4 kts | 354° |
| 2026-04-21 16:02 | 44.57600 | 26.08449 | 323 ft | 8 kts | 355° |
| 2026-04-21 16:02 | 44.57655 | 26.08445 | 326 ft | 8 kts | 5° |
| 2026-04-21 16:02 | 44.57669 | 26.08484 | 327 ft | 5 kts | 85° |
| 2026-04-21 16:03 | 44.57675 | 26.08559 | 327 ft | 22 kts | 84° |
| 2026-04-21 16:03 | 44.57719 | 26.09150 | 316 ft | 96 kts | 84° |
| 2026-04-21 16:03 | 44.57811 | 26.10363 | 352 ft | 149 kts | 82° |
| 2026-04-21 16:03 | 44.57921 | 26.11834 | 1026 ft | 148 kts | 83° |
| 2026-04-21 16:04 | 44.58022 | 26.13315 | 1621 ft | 163 kts | 83° |
| 2026-04-21 16:04 | 44.58159 | 26.14946 | 2178 ft | 179 kts | 75° |
| 2026-04-21 16:04 | 44.58960 | 26.16404 | 2427 ft | 208 kts | 30° |
| 2026-04-21 16:04 | 44.60464 | 26.16691 | 2672 ft | 238 kts | 349° |
| 2026-04-21 16:05 | 44.62017 | 26.15581 | 3086 ft | 261 kts | 327° |
| 2026-04-21 16:05 | 44.63524 | 26.14088 | 3947 ft | 262 kts | 325° |
| 2026-04-21 16:05 | 44.64975 | 26.12642 | 5197 ft | 249 kts | 323° |
| 2026-04-21 16:05 | 44.66396 | 26.11244 | 6004 ft | 255 kts | 323° |
| 2026-04-21 16:06 | 44.67869 | 26.09817 | 6804 ft | 260 kts | 323° |
| 2026-04-21 16:06 | 44.69375 | 26.08379 | 7585 ft | 263 kts | 324° |
| 2026-04-21 16:06 | 44.70891 | 26.06920 | 8411 ft | 265 kts | 323° |
| 2026-04-21 16:06 | 44.72412 | 26.05424 | 9236 ft | 268 kts | 323° |
| 2026-04-21 16:07 | 44.73952 | 26.03927 | 10051 ft | 271 kts | 323° |
| 2026-04-21 16:07 | 44.75540 | 26.02407 | 10519 ft | 286 kts | 324° |
| 2026-04-21 16:07 | 44.77265 | 26.00776 | 10707 ft | 310 kts | 324° |
| 2026-04-21 16:07 | 44.79125 | 25.99038 | 10885 ft | 332 kts | 324° |
| 2026-04-21 16:08 | 44.83162 | 25.95306 | 11698 ft | 356 kts | 325° |
| 2026-04-21 16:08 | 44.85243 | 25.93394 | 12455 ft | 357 kts | 325° |
| 2026-04-21 16:08 | 44.87315 | 25.91449 | 13266 ft | 358 kts | 324° |
| 2026-04-21 16:09 | 44.89383 | 25.89455 | 13992 ft | 362 kts | 324° |
| 2026-04-21 16:09 | 44.91467 | 25.87427 | 14646 ft | 366 kts | 323° |
| 2026-04-21 16:09 | 44.93567 | 25.85379 | 15349 ft | 368 kts | 323° |
| 2026-04-21 16:09 | 44.95687 | 25.83313 | 16066 ft | 371 kts | 323° |
| 2026-04-21 16:10 | 44.97826 | 25.81230 | 16741 ft | 374 kts | 322° |
| 2026-04-21 16:10 | 44.99980 | 25.79133 | 17421 ft | 378 kts | 322° |
| 2026-04-21 16:10 | 45.02158 | 25.77013 | 18111 ft | 382 kts | 322° |
| 2026-04-21 16:10 | 45.04363 | 25.74865 | 18608 ft | 388 kts | 322° |
| 2026-04-21 16:11 | 45.06561 | 25.72725 | 19218 ft | 389 kts | 322° |
| 2026-04-21 16:11 | 45.08830 | 25.70513 | 19799 ft | 392 kts | 322° |
| 2026-04-21 16:11 | 45.11075 | 25.68324 | 20418 ft | 393 kts | 322° |
| 2026-04-21 16:11 | 45.13333 | 25.66121 | 21055 ft | 394 kts | 321° |
| 2026-04-21 16:12 | 45.14829 | 25.64660 | 21445 ft | 395 kts | 321° |
| 2026-04-21 16:12 | 45.17843 | 25.61713 | 22213 ft | 398 kts | 321° |
| 2026-04-21 16:12 | 45.20123 | 25.59480 | 22781 ft | 400 kts | 320° |
| 2026-04-21 16:12 | 45.22420 | 25.57228 | 23365 ft | 401 kts | 320° |
| 2026-04-21 16:13 | 45.24714 | 25.54979 | 23900 ft | 401 kts | 320° |
| 2026-04-21 16:13 | 45.27009 | 25.52725 | 24023 ft | 399 kts | 320° |
| 2026-04-21 16:13 | 45.29296 | 25.50480 | 24040 ft | 400 kts | 320° |
| 2026-04-21 16:13 | 45.31604 | 25.48207 | 24057 ft | 407 kts | 321° |
| 2026-04-21 16:14 | 45.33949 | 25.45893 | 24060 ft | 411 kts | 321° |
| 2026-04-21 16:14 | 45.36257 | 25.43617 | 24051 ft | 408 kts | 321° |
| 2026-04-21 16:14 | 45.38586 | 25.41321 | 24042 ft | 406 kts | 321° |
| 2026-04-21 16:14 | 45.40901 | 25.39035 | 24053 ft | 406 kts | 321° |
| 2026-04-21 16:15 | 45.43229 | 25.36733 | 24041 ft | 406 kts | 321° |
| 2026-04-21 16:15 | 45.45548 | 25.34438 | 24028 ft | 406 kts | 321° |
| 2026-04-21 16:15 | 45.47867 | 25.32139 | 24035 ft | 406 kts | 321° |
| 2026-04-21 16:15 | 45.50186 | 25.29838 | 24028 ft | 406 kts | 321° |
| 2026-04-21 16:16 | 45.52511 | 25.27528 | 24026 ft | 407 kts | 321° |
| 2026-04-21 16:16 | 45.54833 | 25.25220 | 24021 ft | 407 kts | 321° |
| 2026-04-21 16:16 | 45.57162 | 25.22900 | 24042 ft | 408 kts | 321° |
| 2026-04-21 16:16 | 45.59497 | 25.20573 | 24031 ft | 411 kts | 322° |
| 2026-04-21 16:17 | 45.61848 | 25.18228 | 24038 ft | 414 kts | 322° |
| 2026-04-21 16:17 | 45.64220 | 25.15860 | 24021 ft | 417 kts | 322° |
| 2026-04-21 16:17 | 45.66605 | 25.13477 | 24032 ft | 419 kts | 322° |
| 2026-04-21 16:17 | 45.69002 | 25.11079 | 24030 ft | 421 kts | 322° |
| 2026-04-21 16:18 | 45.71400 | 25.08678 | 24027 ft | 421 kts | 322° |
| 2026-04-21 16:18 | 45.73764 | 25.06309 | 24015 ft | 421 kts | 322° |
| 2026-04-21 16:18 | 45.76180 | 25.03885 | 24016 ft | 421 kts | 322° |
| 2026-04-21 16:18 | 45.78575 | 25.01479 | 24018 ft | 420 kts | 322° |
| 2026-04-21 16:19 | 45.80956 | 24.99087 | 24005 ft | 410 kts | 322° |
| 2026-04-21 16:19 | 45.83266 | 24.96765 | 23700 ft | 400 kts | 322° |
| 2026-04-21 16:19 | 45.85523 | 24.94492 | 23217 ft | 395 kts | 322° |
| 2026-04-21 16:19 | 45.87757 | 24.92239 | 22709 ft | 389 kts | 322° |
| 2026-04-21 16:20 | 45.89924 | 24.90051 | 22203 ft | 384 kts | 322° |
| 2026-04-21 16:20 | 45.92094 | 24.87856 | 21689 ft | 379 kts | 322° |
| 2026-04-21 16:20 | 45.94242 | 24.85682 | 21171 ft | 376 kts | 323° |
| 2026-04-21 16:20 | 45.96365 | 24.83530 | 20691 ft | 371 kts | 323° |
| 2026-04-21 16:21 | 45.98471 | 24.81394 | 20179 ft | 368 kts | 323° |
| 2026-04-21 16:21 | 46.00553 | 24.79282 | 19690 ft | 365 kts | 323° |
| 2026-04-21 16:21 | 46.02620 | 24.77182 | 19204 ft | 362 kts | 323° |
| 2026-04-21 16:21 | 46.04665 | 24.75102 | 18730 ft | 359 kts | 323° |
| 2026-04-21 16:22 | 46.06702 | 24.73028 | 18248 ft | 357 kts | 323° |
| 2026-04-21 16:22 | 46.08725 | 24.70968 | 17706 ft | 355 kts | 323° |
| 2026-04-21 16:22 | 46.10736 | 24.68918 | 17220 ft | 352 kts | 323° |
| 2026-04-21 16:22 | 46.12727 | 24.66887 | 16739 ft | 349 kts | 323° |
| 2026-04-21 16:23 | 46.14697 | 24.64875 | 16267 ft | 346 kts | 323° |
| 2026-04-21 16:23 | 46.16657 | 24.62872 | 15795 ft | 344 kts | 323° |
| 2026-04-21 16:23 | 46.18600 | 24.60883 | 15331 ft | 341 kts | 323° |
| 2026-04-21 16:23 | 46.20524 | 24.58912 | 14877 ft | 339 kts | 323° |
| 2026-04-21 16:24 | 46.22444 | 24.56945 | 14423 ft | 337 kts | 323° |
| 2026-04-21 16:24 | 46.24349 | 24.54991 | 13972 ft | 335 kts | 323° |
| 2026-04-21 16:24 | 46.26242 | 24.53048 | 13482 ft | 333 kts | 323° |
| 2026-04-21 16:24 | 46.28126 | 24.51111 | 13006 ft | 331 kts | 323° |
| 2026-04-21 16:25 | 46.29992 | 24.49193 | 12562 ft | 328 kts | 323° |
| 2026-04-21 16:25 | 46.31844 | 24.47286 | 12110 ft | 325 kts | 323° |
| 2026-04-21 16:25 | 46.33678 | 24.45396 | 11665 ft | 322 kts | 323° |
| 2026-04-21 16:25 | 46.35495 | 24.43523 | 11231 ft | 320 kts | 323° |
| 2026-04-21 16:26 | 46.37281 | 24.41679 | 10809 ft | 318 kts | 323° |
| 2026-04-21 16:26 | 46.39046 | 24.39858 | 10696 ft | 306 kts | 323° |
| 2026-04-21 16:26 | 46.40751 | 24.38096 | 10545 ft | 296 kts | 323° |
| 2026-04-21 16:26 | 46.42396 | 24.36396 | 10439 ft | 286 kts | 323° |
| 2026-04-21 16:27 | 46.43989 | 24.34747 | 10317 ft | 276 kts | 323° |
| 2026-04-21 16:27 | 46.45531 | 24.33151 | 10196 ft | 268 kts | 323° |
| 2026-04-21 16:27 | 46.47021 | 24.31607 | 10089 ft | 259 kts | 323° |
| 2026-04-21 16:27 | 46.48465 | 24.30108 | 9962 ft | 252 kts | 323° |
| 2026-04-21 16:28 | 46.49887 | 24.28632 | 9712 ft | 249 kts | 323° |
| 2026-04-21 16:28 | 46.51287 | 24.27177 | 9444 ft | 247 kts | 323° |
| 2026-04-21 16:28 | 46.52685 | 24.25723 | 9172 ft | 245 kts | 323° |
| 2026-04-21 16:28 | 46.54065 | 24.24287 | 8927 ft | 243 kts | 323° |
| 2026-04-21 16:29 | 46.54976 | 24.23338 | 8749 ft | 242 kts | 323° |
| 2026-04-21 16:29 | 46.56801 | 24.21438 | 8403 ft | 240 kts | 323° |
| 2026-04-21 16:29 | 46.58151 | 24.20031 | 8161 ft | 238 kts | 323° |
| 2026-04-21 16:29 | 46.59478 | 24.18647 | 7910 ft | 237 kts | 323° |
| 2026-04-21 16:30 | 46.60817 | 24.17249 | 7658 ft | 236 kts | 323° |
| 2026-04-21 16:30 | 46.62146 | 24.15862 | 7408 ft | 235 kts | 323° |
| 2026-04-21 16:30 | 46.63472 | 24.14477 | 7190 ft | 235 kts | 323° |
| 2026-04-21 16:30 | 46.64818 | 24.13070 | 6942 ft | 241 kts | 323° |
| 2026-04-21 16:31 | 46.66201 | 24.11623 | 6682 ft | 247 kts | 323° |
| 2026-04-21 16:31 | 46.67585 | 24.10174 | 6430 ft | 246 kts | 323° |
| 2026-04-21 16:31 | 46.68970 | 24.08723 | 6148 ft | 245 kts | 324° |
| 2026-04-21 16:31 | 46.70352 | 24.07275 | 5860 ft | 244 kts | 324° |
| 2026-04-21 16:32 | 46.71721 | 24.05838 | 5597 ft | 242 kts | 325° |
| 2026-04-21 16:32 | 46.73088 | 24.04405 | 5320 ft | 241 kts | 324° |
| 2026-04-21 16:32 | 46.74440 | 24.02985 | 5106 ft | 236 kts | 324° |
| 2026-04-21 16:32 | 46.75740 | 24.01618 | 5022 ft | 225 kts | 325° |
| 2026-04-21 16:33 | 46.76953 | 24.00343 | 4921 ft | 210 kts | 325° |
| 2026-04-21 16:33 | 46.78103 | 23.99133 | 4823 ft | 197 kts | 325° |
| 2026-04-21 16:33 | 46.79171 | 23.98009 | 4730 ft | 185 kts | 325° |
| 2026-04-21 16:33 | 46.80190 | 23.96937 | 4670 ft | 178 kts | 325° |
| 2026-04-21 16:34 | 46.81206 | 23.95867 | 4506 ft | 180 kts | 325° |
| 2026-04-21 16:34 | 46.82222 | 23.94798 | 4376 ft | 184 kts | 325° |
| 2026-04-21 16:34 | 46.83246 | 23.93679 | 4161 ft | 182 kts | 317° |
| 2026-04-21 16:34 | 46.83757 | 23.92086 | 3942 ft | 176 kts | 269° |
| 2026-04-21 16:35 | 46.83494 | 23.90334 | 3814 ft | 175 kts | 261° |
| 2026-04-21 16:35 | 46.83237 | 23.88623 | 3618 ft | 170 kts | 259° |
| 2026-04-21 16:35 | 46.82912 | 23.86981 | 3532 ft | 174 kts | 257° |
| 2026-04-21 16:35 | 46.82544 | 23.85320 | 3295 ft | 167 kts | 257° |
| 2026-04-21 16:36 | 46.82198 | 23.83792 | 3109 ft | 152 kts | 257° |
| 2026-04-21 16:36 | 46.81871 | 23.82335 | 2877 ft | 149 kts | 256° |
| 2026-04-21 16:36 | 46.81659 | 23.81391 | 2745 ft | 147 kts | 257° |
| 2026-04-21 16:36 | 46.81336 | 23.79960 | 2555 ft | 150 kts | 256° |
| 2026-04-21 16:37 | 46.81013 | 23.78520 | 2356 ft | 148 kts | 258° |
| 2026-04-21 16:37 | 46.80696 | 23.77109 | 2162 ft | 145 kts | 257° |
| 2026-04-21 16:37 | 46.80382 | 23.75710 | 1914 ft | 145 kts | 256° |
| 2026-04-21 16:37 | 46.80057 | 23.74283 | 1694 ft | 148 kts | 253° |
| 2026-04-21 16:38 | 46.79738 | 23.72856 | 1517 ft | 149 kts | 257° |
| 2026-04-21 16:38 | 46.79421 | 23.71427 | 1330 ft | 152 kts | 257° |
| 2026-04-21 16:38 | 46.79096 | 23.69957 | 1112 ft | 149 kts | 256° |
| 2026-04-21 16:38 | 46.78789 | 23.68601 | 1053 ft | 128 kts | 254° |
| 2026-04-21 16:39 | 46.78557 | 23.67515 | 1044 ft | 96 kts | 262° |
| 2026-04-21 16:39 | 46.78381 | 23.66317 | 1283 ft | 145 kts | 258° |
| 2026-04-21 16:39 | 46.78040 | 23.64756 | 1892 ft | 171 kts | 252° |
| 2026-04-21 16:39 | 46.77671 | 23.63087 | 2627 ft | 177 kts | 253° |
| 2026-04-21 16:40 | 46.77227 | 23.61263 | 3011 ft | 207 kts | 253° |
| 2026-04-21 16:40 | 46.76703 | 23.59160 | 3338 ft | 232 kts | 253° |
| 2026-04-21 16:40 | 46.76145 | 23.56925 | 4075 ft | 237 kts | 253° |
| 2026-04-21 16:40 | 46.75487 | 23.54701 | 5001 ft | 243 kts | 239° |
| 2026-04-21 16:41 | 46.74209 | 23.53056 | 5917 ft | 252 kts | 210° |
| 2026-04-21 16:41 | 46.72514 | 23.52438 | 6255 ft | 258 kts | 180° |
| 2026-04-21 16:41 | 46.70737 | 23.53077 | 6294 ft | 270 kts | 151° |
| 2026-04-21 16:41 | 46.69357 | 23.54848 | 6292 ft | 269 kts | 122° |
| 2026-04-21 16:42 | 46.68710 | 23.57335 | 6300 ft | 261 kts | 92° |
| 2026-04-21 16:42 | 46.68792 | 23.59935 | 6307 ft | 256 kts | 80° |
| 2026-04-21 16:42 | 46.69085 | 23.62497 | 6296 ft | 256 kts | 75° |
| 2026-04-21 16:42 | 46.69471 | 23.65022 | 6289 ft | 256 kts | 75° |
| 2026-04-21 16:43 | 46.69613 | 23.67622 | 6267 ft | 258 kts | 86° |
| 2026-04-21 16:43 | 46.69655 | 23.70216 | 6102 ft | 254 kts | 85° |
| 2026-04-21 16:43 | 46.69704 | 23.72768 | 5814 ft | 255 kts | 85° |
| 2026-04-21 16:43 | 46.69753 | 23.75364 | 5536 ft | 256 kts | 85° |
| 2026-04-21 16:44 | 46.69804 | 23.77942 | 5302 ft | 254 kts | 85° |
| 2026-04-21 16:44 | 46.69856 | 23.80511 | 5023 ft | 254 kts | 85° |
| 2026-04-21 16:44 | 46.69906 | 23.83062 | 4780 ft | 251 kts | 85° |
| 2026-04-21 16:44 | 46.69959 | 23.85600 | 4438 ft | 253 kts | 85° |
| 2026-04-21 16:45 | 46.70017 | 23.88241 | 3865 ft | 265 kts | 85° |
| 2026-04-21 16:45 | 46.70077 | 23.90891 | 3607 ft | 264 kts | 85° |
| 2026-04-21 16:45 | 46.70135 | 23.93564 | 3308 ft | 265 kts | 85° |
| 2026-04-21 16:45 | 46.70190 | 23.96206 | 3226 ft | 256 kts | 85° |
| 2026-04-21 16:46 | 46.70305 | 23.98744 | 3128 ft | 246 kts | 76° |
| 2026-04-21 16:46 | 46.70684 | 24.01126 | 3043 ft | 236 kts | 73° |
| 2026-04-21 16:46 | 46.71046 | 24.03383 | 3006 ft | 221 kts | 73° |
| 2026-04-21 16:46 | 46.71374 | 24.05491 | 2995 ft | 210 kts | 73° |
| 2026-04-21 16:47 | 46.71725 | 24.07491 | 2980 ft | 194 kts | 62° |
| 2026-04-21 16:47 | 46.72600 | 24.08711 | 2986 ft | 167 kts | 10° |
| 2026-04-21 16:47 | 46.73742 | 24.08567 | 3026 ft | 172 kts | 347° |
| 2026-04-21 16:47 | 46.74909 | 24.08081 | 3009 ft | 176 kts | 333° |
| 2026-04-21 16:48 | 46.75999 | 24.07215 | 3003 ft | 179 kts | 329° |
| 2026-04-21 16:48 | 46.77012 | 24.06164 | 2994 ft | 179 kts | 320° |
| 2026-04-21 16:48 | 46.77956 | 24.04979 | 3009 ft | 179 kts | 320° |
| 2026-04-21 16:48 | 46.78860 | 24.03766 | 2994 ft | 178 kts | 317° |
| 2026-04-21 16:49 | 46.79754 | 24.02483 | 3001 ft | 180 kts | 316° |
| 2026-04-21 16:49 | 46.80616 | 24.01130 | 3000 ft | 184 kts | 314° |
| 2026-04-21 16:49 | 46.81471 | 23.99758 | 3004 ft | 186 kts | 313° |
| 2026-04-21 16:49 | 46.82301 | 23.98337 | 3006 ft | 189 kts | 307° |
| 2026-04-21 16:50 | 46.83061 | 23.96714 | 3010 ft | 190 kts | 306° |
| 2026-04-21 16:50 | 46.83793 | 23.95108 | 2999 ft | 188 kts | 303° |
| 2026-04-21 16:50 | 46.84089 | 23.93304 | 2981 ft | 184 kts | 262° |
| 2026-04-21 16:50 | 46.83775 | 23.91529 | 3001 ft | 179 kts | 261° |
| 2026-04-21 16:51 | 46.83499 | 23.89753 | 2998 ft | 178 kts | 260° |
| 2026-04-21 16:51 | 46.83167 | 23.88114 | 2983 ft | 159 kts | 257° |
| 2026-04-21 16:51 | 46.82838 | 23.86631 | 2987 ft | 153 kts | 256° |
| 2026-04-21 16:51 | 46.82505 | 23.85144 | 2991 ft | 154 kts | 257° |
| 2026-04-21 16:52 | 46.82178 | 23.83698 | 3012 ft | 150 kts | 256° |
| 2026-04-21 16:52 | 46.81849 | 23.82233 | 2863 ft | 153 kts | 256° |
| 2026-04-21 16:52 | 46.81518 | 23.80766 | 2642 ft | 150 kts | 256° |
| 2026-04-21 16:52 | 46.81197 | 23.79343 | 2471 ft | 150 kts | 255° |
| 2026-04-21 16:53 | 46.80871 | 23.77885 | 2245 ft | 150 kts | 256° |
| 2026-04-21 16:53 | 46.80548 | 23.76468 | 2044 ft | 145 kts | 256° |
| 2026-04-21 16:53 | 46.80243 | 23.75062 | 1796 ft | 146 kts | 256° |
| 2026-04-21 16:53 | 46.79914 | 23.73669 | 1633 ft | 145 kts | 257° |
| 2026-04-21 16:54 | 46.79611 | 23.72235 | 1428 ft | 150 kts | 253° |
| 2026-04-21 16:54 | 46.79287 | 23.70795 | 1247 ft | 149 kts | 259° |
| 2026-04-21 16:54 | 46.78960 | 23.69384 | 1057 ft | 143 kts | 258° |
| 2026-04-21 16:54 | 46.78690 | 23.68160 | 1042 ft | 113 kts | 252° |
| 2026-04-21 16:55 | 46.78543 | 23.67514 | 1042 ft | 12 kts | 251° |
| 2026-04-21 16:55 | 46.78517 | 23.67397 | 1042 ft | 12 kts | 253° |
| 2026-04-21 16:55 | 46.78492 | 23.67280 | 1042 ft | 12 kts | 252° |
| 2026-04-21 16:55 | 46.78446 | 23.67187 | 1042 ft | 12 kts | 200° |
| 2026-04-21 16:56 | 46.78377 | 23.67232 | 1042 ft | 11 kts | 132° |
| 2026-04-21 16:56 | 46.78340 | 23.67329 | 1042 ft | 11 kts | 97° |